sensor_id;sensor_type;location;lat;lon;timestamp;temperature;humidity
612;DHT22;293;53.888;11.464;2023-03-23T00:01:26;12.40;99.90
612;DHT22;293;53.888;11.464;2023-03-23T00:03:56;12.40;99.90
612;DHT22;293;53.888;11.464;2023-03-23T00:06:25;12.30;99.90
612;DHT22;293;53.888;11.464;2023-03-23T00:08:54;12.30;99.90
612;DHT22;293;53.888;11.464;2023-03-23T00:11:26;12.20;99.90
612;DHT22;293;53.888;11.464;2023-03-23T00:13:55;12.30;99.90
612;DHT22;293;53.888;11.464;2023-03-23T00:16:28;12.30;99.90
612;DHT22;293;53.888;11.464;2023-03-23T00:18:57;12.20;99.90
612;DHT22;293;53.888;11.464;2023-03-23T00:21:25;12.20;99.90
612;DHT22;293;53.888;11.464;2023-03-23T00:24:01;12.20;99.90
612;DHT22;293;53.888;11.464;2023-03-23T00:26:29;12.20;99.90
612;DHT22;293;53.888;11.464;2023-03-23T00:28:59;12.20;99.90
612;DHT22;293;53.888;11.464;2023-03-23T00:31:27;12.10;99.90
612;DHT22;293;53.888;11.464;2023-03-23T00:33:57;12.10;99.90
612;DHT22;293;53.888;11.464;2023-03-23T00:36:27;12.10;99.90
612;DHT22;293;53.888;11.464;2023-03-23T00:38:54;12.10;99.90
612;DHT22;293;53.888;11.464;2023-03-23T00:41:27;12.10;99.90
612;DHT22;293;53.888;11.464;2023-03-23T00:43:55;12.10;99.90
612;DHT22;293;53.888;11.464;2023-03-23T00:46:22;12.10;99.90
612;DHT22;293;53.888;11.464;2023-03-23T00:48:50;12.00;99.90
612;DHT22;293;53.888;11.464;2023-03-23T00:51:18;12.00;99.90
612;DHT22;293;53.888;11.464;2023-03-23T00:53:45;12.00;99.90
612;DHT22;293;53.888;11.464;2023-03-23T00:56:13;12.00;99.90
612;DHT22;293;53.888;11.464;2023-03-23T00:58:41;12.00;99.90
612;DHT22;293;53.888;11.464;2023-03-23T01:01:08;11.90;99.90
612;DHT22;293;53.888;11.464;2023-03-23T01:03:36;12.00;99.90
612;DHT22;293;53.888;11.464;2023-03-23T01:06:08;12.00;99.90
612;DHT22;293;53.888;11.464;2023-03-23T01:08:39;11.90;99.90
612;DHT22;293;53.888;11.464;2023-03-23T01:11:12;11.90;99.90
612;DHT22;293;53.888;11.464;2023-03-23T01:13:40;11.80;99.90
612;DHT22;293;53.888;11.464;2023-03-23T01:16:08;11.80;99.90
612;DHT22;293;53.888;11.464;2023-03-23T01:18:35;11.80;99.90
612;DHT22;293;53.888;11.464;2023-03-23T01:21:04;11.80;99.90
612;DHT22;293;53.888;11.464;2023-03-23T01:23:32;11.70;99.90
612;DHT22;293;53.888;11.464;2023-03-23T01:26:03;11.70;99.90
612;DHT22;293;53.888;11.464;2023-03-23T01:28:29;11.70;99.90
612;DHT22;293;53.888;11.464;2023-03-23T01:31:01;11.60;99.90
612;DHT22;293;53.888;11.464;2023-03-23T01:33:28;11.60;99.90
612;DHT22;293;53.888;11.464;2023-03-23T01:35:55;11.60;99.90
612;DHT22;293;53.888;11.464;2023-03-23T01:38:22;11.60;99.90
612;DHT22;293;53.888;11.464;2023-03-23T01:40:49;11.60;99.90
612;DHT22;293;53.888;11.464;2023-03-23T01:43:16;11.60;99.90
612;DHT22;293;53.888;11.464;2023-03-23T01:45:43;11.60;99.90
612;DHT22;293;53.888;11.464;2023-03-23T01:48:16;11.60;99.90
612;DHT22;293;53.888;11.464;2023-03-23T01:50:52;11.60;99.90
612;DHT22;293;53.888;11.464;2023-03-23T01:53:19;11.50;99.90
612;DHT22;293;53.888;11.464;2023-03-23T01:55:49;11.50;99.90
612;DHT22;293;53.888;11.464;2023-03-23T01:58:19;11.50;99.90
612;DHT22;293;53.888;11.464;2023-03-23T02:00:47;11.50;99.90
612;DHT22;293;53.888;11.464;2023-03-23T02:03:15;11.50;99.90
612;DHT22;293;53.888;11.464;2023-03-23T02:05:43;11.50;99.90
612;DHT22;293;53.888;11.464;2023-03-23T02:08:11;11.50;99.90
612;DHT22;293;53.888;11.464;2023-03-23T02:10:40;11.50;99.90
612;DHT22;293;53.888;11.464;2023-03-23T02:13:09;11.50;99.90
612;DHT22;293;53.888;11.464;2023-03-23T02:15:45;11.50;99.90
612;DHT22;293;53.888;11.464;2023-03-23T02:18:26;11.50;99.90
612;DHT22;293;53.888;11.464;2023-03-23T02:21:14;11.60;99.90
612;DHT22;293;53.888;11.464;2023-03-23T02:24:03;11.60;99.90
612;DHT22;293;53.888;11.464;2023-03-23T02:26:45;11.60;99.90
612;DHT22;293;53.888;11.464;2023-03-23T02:29:43;11.60;99.90
612;DHT22;293;53.888;11.464;2023-03-23T02:32:20;11.50;99.90
612;DHT22;293;53.888;11.464;2023-03-23T02:34:52;11.50;99.90
612;DHT22;293;53.888;11.464;2023-03-23T02:37:23;11.50;99.90
612;DHT22;293;53.888;11.464;2023-03-23T02:39:53;11.50;99.90
612;DHT22;293;53.888;11.464;2023-03-23T02:42:26;11.60;99.90
612;DHT22;293;53.888;11.464;2023-03-23T02:44:56;11.50;99.90
612;DHT22;293;53.888;11.464;2023-03-23T02:47:26;11.60;99.90
612;DHT22;293;53.888;11.464;2023-03-23T02:49:57;11.60;99.90
612;DHT22;293;53.888;11.464;2023-03-23T02:52:27;11.50;99.90
612;DHT22;293;53.888;11.464;2023-03-23T02:54:56;11.50;99.90
612;DHT22;293;53.888;11.464;2023-03-23T02:57:24;11.50;99.90
612;DHT22;293;53.888;11.464;2023-03-23T02:59:53;11.50;99.90
612;DHT22;293;53.888;11.464;2023-03-23T03:02:21;11.50;99.90
612;DHT22;293;53.888;11.464;2023-03-23T03:04:55;11.50;99.90
612;DHT22;293;53.888;11.464;2023-03-23T03:07:35;11.50;99.90
612;DHT22;293;53.888;11.464;2023-03-23T03:10:10;11.40;99.90
612;DHT22;293;53.888;11.464;2023-03-23T03:12:44;11.40;99.90
612;DHT22;293;53.888;11.464;2023-03-23T03:15:25;11.40;99.90
612;DHT22;293;53.888;11.464;2023-03-23T03:17:58;11.40;99.90
612;DHT22;293;53.888;11.464;2023-03-23T03:20:29;11.30;99.90
612;DHT22;293;53.888;11.464;2023-03-23T03:22:58;11.30;99.90
612;DHT22;293;53.888;11.464;2023-03-23T03:25:26;11.40;99.90
612;DHT22;293;53.888;11.464;2023-03-23T03:27:54;11.40;99.90
612;DHT22;293;53.888;11.464;2023-03-23T03:30:26;11.30;99.90
612;DHT22;293;53.888;11.464;2023-03-23T03:32:56;11.30;99.90
612;DHT22;293;53.888;11.464;2023-03-23T03:35:27;11.40;99.90
612;DHT22;293;53.888;11.464;2023-03-23T03:37:55;11.40;99.90
612;DHT22;293;53.888;11.464;2023-03-23T03:40:23;11.40;99.90
612;DHT22;293;53.888;11.464;2023-03-23T03:42:50;11.40;99.90
612;DHT22;293;53.888;11.464;2023-03-23T03:45:19;11.30;99.90
612;DHT22;293;53.888;11.464;2023-03-23T03:47:46;11.30;99.90
612;DHT22;293;53.888;11.464;2023-03-23T03:50:13;11.30;99.90
612;DHT22;293;53.888;11.464;2023-03-23T03:52:43;11.30;99.90
612;DHT22;293;53.888;11.464;2023-03-23T03:55:10;11.30;99.90
612;DHT22;293;53.888;11.464;2023-03-23T03:57:38;11.30;99.90
612;DHT22;293;53.888;11.464;2023-03-23T04:00:08;11.30;99.90
612;DHT22;293;53.888;11.464;2023-03-23T04:02:41;11.30;99.90
612;DHT22;293;53.888;11.464;2023-03-23T04:05:08;11.30;99.90
612;DHT22;293;53.888;11.464;2023-03-23T04:07:35;11.30;99.90
612;DHT22;293;53.888;11.464;2023-03-23T04:10:07;11.40;99.90
612;DHT22;293;53.888;11.464;2023-03-23T04:12:34;11.30;99.90
612;DHT22;293;53.888;11.464;2023-03-23T04:15:02;11.30;99.90
612;DHT22;293;53.888;11.464;2023-03-23T04:17:29;11.30;99.90
612;DHT22;293;53.888;11.464;2023-03-23T04:19:56;11.30;99.90
612;DHT22;293;53.888;11.464;2023-03-23T04:22:25;11.30;99.90
612;DHT22;293;53.888;11.464;2023-03-23T04:24:56;11.20;99.90
612;DHT22;293;53.888;11.464;2023-03-23T04:27:25;11.20;99.90
612;DHT22;293;53.888;11.464;2023-03-23T04:29:54;11.20;99.90
612;DHT22;293;53.888;11.464;2023-03-23T04:32:21;11.20;99.90
612;DHT22;293;53.888;11.464;2023-03-23T04:34:50;11.20;99.90
612;DHT22;293;53.888;11.464;2023-03-23T04:37:17;11.20;99.90
612;DHT22;293;53.888;11.464;2023-03-23T04:39:44;11.20;99.90
612;DHT22;293;53.888;11.464;2023-03-23T04:42:11;11.20;99.90
612;DHT22;293;53.888;11.464;2023-03-23T04:44:41;11.20;99.90
612;DHT22;293;53.888;11.464;2023-03-23T04:47:09;11.20;99.90
612;DHT22;293;53.888;11.464;2023-03-23T04:49:35;11.20;99.90
612;DHT22;293;53.888;11.464;2023-03-23T04:52:03;11.20;99.90
612;DHT22;293;53.888;11.464;2023-03-23T04:54:31;11.20;99.90
612;DHT22;293;53.888;11.464;2023-03-23T04:56:58;11.10;99.90
612;DHT22;293;53.888;11.464;2023-03-23T04:59:25;11.20;99.90
612;DHT22;293;53.888;11.464;2023-03-23T05:01:54;11.20;99.90
612;DHT22;293;53.888;11.464;2023-03-23T05:04:21;11.20;99.90
612;DHT22;293;53.888;11.464;2023-03-23T05:06:50;11.30;99.90
612;DHT22;293;53.888;11.464;2023-03-23T05:09:18;11.30;99.90
612;DHT22;293;53.888;11.464;2023-03-23T05:11:45;11.30;99.90
612;DHT22;293;53.888;11.464;2023-03-23T05:14:12;11.30;99.90
612;DHT22;293;53.888;11.464;2023-03-23T05:16:39;11.30;99.90
612;DHT22;293;53.888;11.464;2023-03-23T05:19:07;11.30;99.90
612;DHT22;293;53.888;11.464;2023-03-23T05:21:34;11.30;99.90
612;DHT22;293;53.888;11.464;2023-03-23T05:24:02;11.30;99.90
612;DHT22;293;53.888;11.464;2023-03-23T05:26:29;11.40;99.90
612;DHT22;293;53.888;11.464;2023-03-23T05:28:56;11.40;99.90
612;DHT22;293;53.888;11.464;2023-03-23T05:31:24;11.30;99.90
612;DHT22;293;53.888;11.464;2023-03-23T05:33:51;11.40;99.90
612;DHT22;293;53.888;11.464;2023-03-23T05:36:19;11.40;99.90
612;DHT22;293;53.888;11.464;2023-03-23T05:38:48;11.30;99.90
612;DHT22;293;53.888;11.464;2023-03-23T05:41:15;11.30;99.90
612;DHT22;293;53.888;11.464;2023-03-23T05:43:42;11.40;99.90
612;DHT22;293;53.888;11.464;2023-03-23T05:46:09;11.30;99.90
612;DHT22;293;53.888;11.464;2023-03-23T05:48:36;11.30;99.90
612;DHT22;293;53.888;11.464;2023-03-23T05:51:04;11.30;99.90
612;DHT22;293;53.888;11.464;2023-03-23T05:53:32;11.30;99.90
612;DHT22;293;53.888;11.464;2023-03-23T05:55:59;11.30;99.90
612;DHT22;293;53.888;11.464;2023-03-23T05:58:27;11.30;99.90
612;DHT22;293;53.888;11.464;2023-03-23T06:00:54;11.30;99.90
612;DHT22;293;53.888;11.464;2023-03-23T06:03:21;11.30;99.90
612;DHT22;293;53.888;11.464;2023-03-23T06:05:48;11.30;99.90
612;DHT22;293;53.888;11.464;2023-03-23T06:08:15;11.30;99.90
612;DHT22;293;53.888;11.464;2023-03-23T06:10:44;11.40;99.90
612;DHT22;293;53.888;11.464;2023-03-23T06:13:11;11.40;99.90
612;DHT22;293;53.888;11.464;2023-03-23T06:15:38;11.40;99.90
612;DHT22;293;53.888;11.464;2023-03-23T06:18:05;11.40;99.90
612;DHT22;293;53.888;11.464;2023-03-23T06:20:32;11.40;99.90
612;DHT22;293;53.888;11.464;2023-03-23T06:23:00;11.50;99.90
612;DHT22;293;53.888;11.464;2023-03-23T06:25:29;11.50;99.90
612;DHT22;293;53.888;11.464;2023-03-23T06:27:58;11.50;99.90
612;DHT22;293;53.888;11.464;2023-03-23T06:30:25;11.50;99.90
612;DHT22;293;53.888;11.464;2023-03-23T06:32:52;11.50;99.90
612;DHT22;293;53.888;11.464;2023-03-23T06:35:19;11.60;99.90
612;DHT22;293;53.888;11.464;2023-03-23T06:37:46;11.60;99.90
612;DHT22;293;53.888;11.464;2023-03-23T06:40:13;11.60;99.90
612;DHT22;293;53.888;11.464;2023-03-23T06:42:44;11.60;99.90
612;DHT22;293;53.888;11.464;2023-03-23T06:45:12;11.60;99.90
612;DHT22;293;53.888;11.464;2023-03-23T06:47:39;11.60;99.90
612;DHT22;293;53.888;11.464;2023-03-23T06:50:07;11.70;99.90
612;DHT22;293;53.888;11.464;2023-03-23T06:52:34;11.70;99.90
612;DHT22;293;53.888;11.464;2023-03-23T06:55:01;11.70;99.90
612;DHT22;293;53.888;11.464;2023-03-23T06:57:28;11.70;99.90
612;DHT22;293;53.888;11.464;2023-03-23T06:59:54;11.80;99.90
612;DHT22;293;53.888;11.464;2023-03-23T07:02:23;12.00;99.90
612;DHT22;293;53.888;11.464;2023-03-23T07:04:51;12.00;99.90
612;DHT22;293;53.888;11.464;2023-03-23T07:07:19;12.00;99.90
612;DHT22;293;53.888;11.464;2023-03-23T07:09:46;12.10;99.90
612;DHT22;293;53.888;11.464;2023-03-23T07:12:13;12.10;99.90
612;DHT22;293;53.888;11.464;2023-03-23T07:14:41;12.00;99.90
612;DHT22;293;53.888;11.464;2023-03-23T07:17:08;12.00;99.90
612;DHT22;293;53.888;11.464;2023-03-23T07:19:36;12.00;99.90
612;DHT22;293;53.888;11.464;2023-03-23T07:22:05;12.00;99.90
612;DHT22;293;53.888;11.464;2023-03-23T07:24:32;12.10;99.90
612;DHT22;293;53.888;11.464;2023-03-23T07:27:00;12.20;99.90
612;DHT22;293;53.888;11.464;2023-03-23T07:29:27;12.20;99.90
612;DHT22;293;53.888;11.464;2023-03-23T07:31:54;12.20;99.90
612;DHT22;293;53.888;11.464;2023-03-23T07:34:21;12.20;99.90
612;DHT22;293;53.888;11.464;2023-03-23T07:36:49;12.20;99.90
612;DHT22;293;53.888;11.464;2023-03-23T07:39:16;12.30;99.90
612;DHT22;293;53.888;11.464;2023-03-23T07:41:42;12.40;99.90
612;DHT22;293;53.888;11.464;2023-03-23T07:44:09;12.40;99.90
612;DHT22;293;53.888;11.464;2023-03-23T07:46:36;12.50;99.90
612;DHT22;293;53.888;11.464;2023-03-23T07:49:04;12.70;99.90
612;DHT22;293;53.888;11.464;2023-03-23T07:51:31;12.90;99.90
612;DHT22;293;53.888;11.464;2023-03-23T07:54:00;13.00;99.90
612;DHT22;293;53.888;11.464;2023-03-23T07:56:28;13.10;99.90
612;DHT22;293;53.888;11.464;2023-03-23T07:58:55;13.10;99.90
612;DHT22;293;53.888;11.464;2023-03-23T08:01:22;13.10;99.90
612;DHT22;293;53.888;11.464;2023-03-23T08:03:50;13.00;99.90
612;DHT22;293;53.888;11.464;2023-03-23T08:06:17;13.00;99.90
612;DHT22;293;53.888;11.464;2023-03-23T08:08:44;13.10;99.90
612;DHT22;293;53.888;11.464;2023-03-23T08:11:13;13.20;99.90
612;DHT22;293;53.888;11.464;2023-03-23T08:13:40;13.20;99.90
612;DHT22;293;53.888;11.464;2023-03-23T08:16:08;13.30;99.90
612;DHT22;293;53.888;11.464;2023-03-23T08:18:35;13.30;99.90
612;DHT22;293;53.888;11.464;2023-03-23T08:21:03;13.40;99.90
612;DHT22;293;53.888;11.464;2023-03-23T08:23:30;13.50;99.90
612;DHT22;293;53.888;11.464;2023-03-23T08:25:58;13.50;99.90
612;DHT22;293;53.888;11.464;2023-03-23T08:28:27;13.60;99.90
612;DHT22;293;53.888;11.464;2023-03-23T08:30:54;13.70;99.90
612;DHT22;293;53.888;11.464;2023-03-23T08:33:21;13.70;99.90
612;DHT22;293;53.888;11.464;2023-03-23T08:35:55;13.70;99.90
612;DHT22;293;53.888;11.464;2023-03-23T08:38:22;13.70;99.90
612;DHT22;293;53.888;11.464;2023-03-23T08:40:49;13.70;99.90
612;DHT22;293;53.888;11.464;2023-03-23T08:43:16;13.70;99.90
612;DHT22;293;53.888;11.464;2023-03-23T08:45:44;13.70;99.90
612;DHT22;293;53.888;11.464;2023-03-23T08:48:12;13.80;99.90
612;DHT22;293;53.888;11.464;2023-03-23T08:50:39;13.90;99.90
612;DHT22;293;53.888;11.464;2023-03-23T08:53:06;14.10;99.90
612;DHT22;293;53.888;11.464;2023-03-23T08:55:33;14.30;99.90
612;DHT22;293;53.888;11.464;2023-03-23T08:58:01;14.50;99.90
612;DHT22;293;53.888;11.464;2023-03-23T09:00:29;14.60;99.90
612;DHT22;293;53.888;11.464;2023-03-23T09:02:57;14.50;99.90
612;DHT22;293;53.888;11.464;2023-03-23T09:05:26;14.40;99.90
612;DHT22;293;53.888;11.464;2023-03-23T09:07:57;14.40;99.90
612;DHT22;293;53.888;11.464;2023-03-23T09:10:25;14.40;99.90
612;DHT22;293;53.888;11.464;2023-03-23T09:12:53;14.30;99.90
612;DHT22;293;53.888;11.464;2023-03-23T09:15:20;14.20;99.90
612;DHT22;293;53.888;11.464;2023-03-23T09:17:50;14.10;99.90
612;DHT22;293;53.888;11.464;2023-03-23T09:20:21;14.10;99.90
612;DHT22;293;53.888;11.464;2023-03-23T09:22:50;14.00;99.90
612;DHT22;293;53.888;11.464;2023-03-23T09:25:19;13.90;99.90
612;DHT22;293;53.888;11.464;2023-03-23T09:27:49;13.60;99.90
612;DHT22;293;53.888;11.464;2023-03-23T09:30:18;13.00;99.90
612;DHT22;293;53.888;11.464;2023-03-23T09:32:46;12.40;99.90
612;DHT22;293;53.888;11.464;2023-03-23T09:35:14;12.20;99.90
612;DHT22;293;53.888;11.464;2023-03-23T09:37:44;11.80;99.90
612;DHT22;293;53.888;11.464;2023-03-23T09:40:14;11.50;99.90
612;DHT22;293;53.888;11.464;2023-03-23T09:45:39;11.30;99.90
612;DHT22;293;53.888;11.464;2023-03-23T09:48:24;11.10;99.90
612;DHT22;293;53.888;11.464;2023-03-23T09:50:59;11.10;99.90
612;DHT22;293;53.888;11.464;2023-03-23T09:53:34;11.00;99.90
612;DHT22;293;53.888;11.464;2023-03-23T09:56:09;11.10;99.90
612;DHT22;293;53.888;11.464;2023-03-23T09:58:42;11.20;99.90
612;DHT22;293;53.888;11.464;2023-03-23T10:01:17;11.30;99.90
612;DHT22;293;53.888;11.464;2023-03-23T10:03:46;11.40;99.90
612;DHT22;293;53.888;11.464;2023-03-23T10:06:16;11.60;99.90
612;DHT22;293;53.888;11.464;2023-03-23T10:08:47;11.70;99.90
612;DHT22;293;53.888;11.464;2023-03-23T10:11:20;11.70;99.90
612;DHT22;293;53.888;11.464;2023-03-23T10:14:04;11.80;99.90
612;DHT22;293;53.888;11.464;2023-03-23T10:16:36;11.90;99.90
612;DHT22;293;53.888;11.464;2023-03-23T10:19:10;12.00;99.90
612;DHT22;293;53.888;11.464;2023-03-23T10:21:41;12.00;99.90
612;DHT22;293;53.888;11.464;2023-03-23T10:24:15;12.30;99.90
612;DHT22;293;53.888;11.464;2023-03-23T10:26:48;12.50;99.90
612;DHT22;293;53.888;11.464;2023-03-23T10:29:22;12.60;99.90
612;DHT22;293;53.888;11.464;2023-03-23T10:31:52;12.70;99.90
612;DHT22;293;53.888;11.464;2023-03-23T10:34:24;12.90;99.90
612;DHT22;293;53.888;11.464;2023-03-23T10:37:01;13.20;99.90
612;DHT22;293;53.888;11.464;2023-03-23T10:39:40;13.40;99.90
612;DHT22;293;53.888;11.464;2023-03-23T10:42:09;13.60;99.90
612;DHT22;293;53.888;11.464;2023-03-23T10:44:36;13.70;99.90
612;DHT22;293;53.888;11.464;2023-03-23T10:47:05;13.80;99.90
612;DHT22;293;53.888;11.464;2023-03-23T10:49:36;13.90;99.90
612;DHT22;293;53.888;11.464;2023-03-23T10:52:17;13.80;99.90
612;DHT22;293;53.888;11.464;2023-03-23T10:54:51;13.80;99.90
612;DHT22;293;53.888;11.464;2023-03-23T10:57:25;13.90;99.90
612;DHT22;293;53.888;11.464;2023-03-23T10:59:58;13.80;99.90
612;DHT22;293;53.888;11.464;2023-03-23T11:02:27;13.90;99.90
612;DHT22;293;53.888;11.464;2023-03-23T11:05:00;14.10;99.90
612;DHT22;293;53.888;11.464;2023-03-23T11:07:31;14.20;99.90
612;DHT22;293;53.888;11.464;2023-03-23T11:10:08;14.30;99.90
612;DHT22;293;53.888;11.464;2023-03-23T11:12:44;14.40;99.90
612;DHT22;293;53.888;11.464;2023-03-23T11:15:24;14.50;99.90
612;DHT22;293;53.888;11.464;2023-03-23T11:18:02;14.20;99.90
612;DHT22;293;53.888;11.464;2023-03-23T11:20:32;14.00;99.90
612;DHT22;293;53.888;11.464;2023-03-23T11:23:07;13.90;99.90
612;DHT22;293;53.888;11.464;2023-03-23T11:25:50;14.00;99.90
612;DHT22;293;53.888;11.464;2023-03-23T11:28:19;14.10;99.90
612;DHT22;293;53.888;11.464;2023-03-23T11:30:46;14.10;99.90
612;DHT22;293;53.888;11.464;2023-03-23T11:33:13;14.20;99.90
612;DHT22;293;53.888;11.464;2023-03-23T11:35:44;14.10;99.90
612;DHT22;293;53.888;11.464;2023-03-23T11:38:17;14.00;99.90
612;DHT22;293;53.888;11.464;2023-03-23T11:40:48;13.90;99.90
612;DHT22;293;53.888;11.464;2023-03-23T11:43:19;14.00;99.90
612;DHT22;293;53.888;11.464;2023-03-23T11:45:51;14.10;99.90
612;DHT22;293;53.888;11.464;2023-03-23T11:48:27;14.30;99.90
612;DHT22;293;53.888;11.464;2023-03-23T11:50:58;14.50;99.90
612;DHT22;293;53.888;11.464;2023-03-23T11:53:33;14.70;99.90
612;DHT22;293;53.888;11.464;2023-03-23T11:56:11;14.80;99.90
612;DHT22;293;53.888;11.464;2023-03-23T11:58:40;14.80;99.90
612;DHT22;293;53.888;11.464;2023-03-23T12:01:15;14.70;99.90
612;DHT22;293;53.888;11.464;2023-03-23T12:03:56;14.60;99.90
612;DHT22;293;53.888;11.464;2023-03-23T12:06:31;14.60;99.90
612;DHT22;293;53.888;11.464;2023-03-23T12:09:08;14.70;99.90
612;DHT22;293;53.888;11.464;2023-03-23T12:11:48;14.90;99.90
612;DHT22;293;53.888;11.464;2023-03-23T12:14:19;14.90;99.90
612;DHT22;293;53.888;11.464;2023-03-23T12:17:01;15.10;99.90
612;DHT22;293;53.888;11.464;2023-03-23T12:19:37;15.20;99.90
612;DHT22;293;53.888;11.464;2023-03-23T12:22:12;15.30;99.90
612;DHT22;293;53.888;11.464;2023-03-23T12:24:52;15.50;99.90
612;DHT22;293;53.888;11.464;2023-03-23T12:27:28;15.30;99.90
612;DHT22;293;53.888;11.464;2023-03-23T12:30:09;15.40;99.90
612;DHT22;293;53.888;11.464;2023-03-23T12:32:56;15.30;99.90
612;DHT22;293;53.888;11.464;2023-03-23T12:35:32;15.40;99.90
612;DHT22;293;53.888;11.464;2023-03-23T12:38:19;15.30;99.90
612;DHT22;293;53.888;11.464;2023-03-23T12:41:12;15.00;99.90
612;DHT22;293;53.888;11.464;2023-03-23T12:43:49;15.00;99.90
612;DHT22;293;53.888;11.464;2023-03-23T12:46:38;15.00;99.90
612;DHT22;293;53.888;11.464;2023-03-23T12:49:12;15.10;99.90
612;DHT22;293;53.888;11.464;2023-03-23T12:51:45;15.20;99.90
612;DHT22;293;53.888;11.464;2023-03-23T12:54:19;15.40;99.90
612;DHT22;293;53.888;11.464;2023-03-23T12:56:53;15.50;99.90
612;DHT22;293;53.888;11.464;2023-03-23T12:59:28;15.60;99.90
612;DHT22;293;53.888;11.464;2023-03-23T13:02:04;15.60;99.90
612;DHT22;293;53.888;11.464;2023-03-23T13:04:35;15.70;99.90
612;DHT22;293;53.888;11.464;2023-03-23T13:07:06;15.70;99.90
612;DHT22;293;53.888;11.464;2023-03-23T13:09:46;15.80;99.90
612;DHT22;293;53.888;11.464;2023-03-23T13:12:16;15.80;99.90
612;DHT22;293;53.888;11.464;2023-03-23T13:14:54;15.80;99.90
612;DHT22;293;53.888;11.464;2023-03-23T13:17:29;15.80;99.90
612;DHT22;293;53.888;11.464;2023-03-23T13:20:28;15.90;99.90
612;DHT22;293;53.888;11.464;2023-03-23T13:23:01;15.90;99.90
612;DHT22;293;53.888;11.464;2023-03-23T13:25:53;15.90;99.90
612;DHT22;293;53.888;11.464;2023-03-23T13:28:24;15.70;99.90
612;DHT22;293;53.888;11.464;2023-03-23T13:30:57;15.60;99.90
612;DHT22;293;53.888;11.464;2023-03-23T13:33:24;15.50;99.90
612;DHT22;293;53.888;11.464;2023-03-23T13:35:51;15.40;99.90
612;DHT22;293;53.888;11.464;2023-03-23T13:38:21;15.40;99.90
612;DHT22;293;53.888;11.464;2023-03-23T13:40:51;15.30;99.90
612;DHT22;293;53.888;11.464;2023-03-23T13:43:27;15.40;99.90
612;DHT22;293;53.888;11.464;2023-03-23T13:45:54;15.40;99.90
612;DHT22;293;53.888;11.464;2023-03-23T13:48:24;15.50;99.90
612;DHT22;293;53.888;11.464;2023-03-23T13:50:54;15.50;99.90
612;DHT22;293;53.888;11.464;2023-03-23T13:53:27;15.50;99.90
612;DHT22;293;53.888;11.464;2023-03-23T13:56:06;15.50;99.90
612;DHT22;293;53.888;11.464;2023-03-23T13:58:47;15.40;99.90
612;DHT22;293;53.888;11.464;2023-03-23T14:01:17;15.40;99.90
612;DHT22;293;53.888;11.464;2023-03-23T14:03:48;15.40;99.90
612;DHT22;293;53.888;11.464;2023-03-23T14:06:19;15.30;99.90
612;DHT22;293;53.888;11.464;2023-03-23T14:08:49;15.30;99.90
612;DHT22;293;53.888;11.464;2023-03-23T14:11:21;15.30;99.90
612;DHT22;293;53.888;11.464;2023-03-23T14:14:01;15.40;99.90
612;DHT22;293;53.888;11.464;2023-03-23T14:16:35;15.50;99.90
612;DHT22;293;53.888;11.464;2023-03-23T14:19:14;15.60;99.90
612;DHT22;293;53.888;11.464;2023-03-23T14:21:49;15.70;99.90
612;DHT22;293;53.888;11.464;2023-03-23T14:24:19;15.70;99.90
612;DHT22;293;53.888;11.464;2023-03-23T14:26:48;15.60;99.90
612;DHT22;293;53.888;11.464;2023-03-23T14:29:18;15.70;99.90
612;DHT22;293;53.888;11.464;2023-03-23T14:31:52;15.70;99.90
612;DHT22;293;53.888;11.464;2023-03-23T14:34:22;15.60;99.90
612;DHT22;293;53.888;11.464;2023-03-23T14:36:50;15.50;99.90
612;DHT22;293;53.888;11.464;2023-03-23T14:39:21;15.40;99.90
612;DHT22;293;53.888;11.464;2023-03-23T14:41:51;15.30;99.90
612;DHT22;293;53.888;11.464;2023-03-23T14:44:23;15.20;99.90
612;DHT22;293;53.888;11.464;2023-03-23T14:46:51;15.10;99.90
612;DHT22;293;53.888;11.464;2023-03-23T14:49:26;15.10;99.90
612;DHT22;293;53.888;11.464;2023-03-23T14:51:55;15.00;99.90
612;DHT22;293;53.888;11.464;2023-03-23T14:54:24;15.00;99.90
612;DHT22;293;53.888;11.464;2023-03-23T14:56:51;15.10;99.90
612;DHT22;293;53.888;11.464;2023-03-23T14:59:18;15.00;99.90
612;DHT22;293;53.888;11.464;2023-03-23T15:01:47;14.90;99.90
612;DHT22;293;53.888;11.464;2023-03-23T15:04:17;14.80;99.90
612;DHT22;293;53.888;11.464;2023-03-23T15:06:50;14.70;99.90
612;DHT22;293;53.888;11.464;2023-03-23T15:09:20;14.70;99.90
612;DHT22;293;53.888;11.464;2023-03-23T15:11:53;14.60;99.90
612;DHT22;293;53.888;11.464;2023-03-23T15:14:22;14.60;99.90
612;DHT22;293;53.888;11.464;2023-03-23T15:16:51;14.50;99.90
612;DHT22;293;53.888;11.464;2023-03-23T15:19:22;14.50;99.90
612;DHT22;293;53.888;11.464;2023-03-23T15:21:53;14.50;99.90
612;DHT22;293;53.888;11.464;2023-03-23T15:24:26;14.30;99.90
612;DHT22;293;53.888;11.464;2023-03-23T15:26:54;14.20;99.90
612;DHT22;293;53.888;11.464;2023-03-23T15:29:29;14.10;99.90
612;DHT22;293;53.888;11.464;2023-03-23T15:31:56;13.90;99.90
612;DHT22;293;53.888;11.464;2023-03-23T15:34:30;13.80;99.90
612;DHT22;293;53.888;11.464;2023-03-23T15:37:01;13.60;99.90
612;DHT22;293;53.888;11.464;2023-03-23T15:39:28;13.40;99.90
612;DHT22;293;53.888;11.464;2023-03-23T15:41:56;13.30;99.90
612;DHT22;293;53.888;11.464;2023-03-23T15:44:28;13.00;99.90
612;DHT22;293;53.888;11.464;2023-03-23T15:47:13;12.80;99.90
612;DHT22;293;53.888;11.464;2023-03-23T15:49:41;12.60;99.90
612;DHT22;293;53.888;11.464;2023-03-23T15:52:11;12.40;99.90
612;DHT22;293;53.888;11.464;2023-03-23T15:54:45;12.30;99.90
612;DHT22;293;53.888;11.464;2023-03-23T15:57:12;12.30;99.90
612;DHT22;293;53.888;11.464;2023-03-23T15:59:39;12.20;99.90
612;DHT22;293;53.888;11.464;2023-03-23T16:02:08;12.30;99.90
612;DHT22;293;53.888;11.464;2023-03-23T16:04:36;12.20;99.90
612;DHT22;293;53.888;11.464;2023-03-23T16:07:03;12.20;99.90
612;DHT22;293;53.888;11.464;2023-03-23T16:09:33;12.20;99.90
612;DHT22;293;53.888;11.464;2023-03-23T16:12:00;12.20;99.90
612;DHT22;293;53.888;11.464;2023-03-23T16:14:27;12.10;99.90
612;DHT22;293;53.888;11.464;2023-03-23T16:16:53;12.10;99.90
612;DHT22;293;53.888;11.464;2023-03-23T16:19:20;12.00;99.90
612;DHT22;293;53.888;11.464;2023-03-23T16:21:49;11.80;99.90
612;DHT22;293;53.888;11.464;2023-03-23T16:24:15;11.80;99.90
612;DHT22;293;53.888;11.464;2023-03-23T16:26:44;11.70;99.90
612;DHT22;293;53.888;11.464;2023-03-23T16:29:12;11.60;99.90
612;DHT22;293;53.888;11.464;2023-03-23T16:31:39;11.50;99.90
612;DHT22;293;53.888;11.464;2023-03-23T16:34:06;11.50;99.90
612;DHT22;293;53.888;11.464;2023-03-23T16:36:34;11.40;99.90
612;DHT22;293;53.888;11.464;2023-03-23T16:39:01;11.40;99.90
612;DHT22;293;53.888;11.464;2023-03-23T16:41:27;11.40;99.90